sensor_id;sensor_type;location;lat;lon;timestamp;pressure;altitude;pressure_sealevel;temperature;humidity
16595;BME280;8410;52.532;13.336;2022-11-06T00:01:24;101444.38;;;9.37;85.84
16595;BME280;8410;52.532;13.336;2022-11-06T00:03:52;101442.94;;;10.10;82.35
16595;BME280;8410;52.532;13.336;2022-11-06T00:06:22;101437.91;;;10.88;81.57
16595;BME280;8410;52.532;13.336;2022-11-06T00:09:09;101436.09;;;11.21;79.67
16595;BME280;8410;52.532;13.336;2022-11-06T00:11:37;101429.44;;;10.92;79.13
16595;BME280;8410;52.532;13.336;2022-11-06T00:14:05;101432.72;;;10.85;78.96
16595;BME280;8410;52.532;13.336;2022-11-06T00:16:33;101424.56;;;11.04;79.79
16595;BME280;8410;52.532;13.336;2022-11-06T00:19:01;101427.84;;;10.97;79.16
16595;BME280;8410;52.532;13.336;2022-11-06T00:21:30;101428.03;;;11.06;79.15
16595;BME280;8410;52.532;13.336;2022-11-06T00:24:01;101430.59;;;11.06;77.87
16595;BME280;8410;52.532;13.336;2022-11-06T00:26:30;101425.28;;;10.98;78.14
16595;BME280;8410;52.532;13.336;2022-11-06T00:28:58;101421.84;;;10.98;79.20
16595;BME280;8410;52.532;13.336;2022-11-06T00:31:27;101429.09;;;10.76;79.52
16595;BME280;8410;52.532;13.336;2022-11-06T00:33:57;101437.47;;;9.98;81.05
16595;BME280;8410;52.532;13.336;2022-11-06T00:36:26;101428.91;;;10.67;80.21
16595;BME280;8410;52.532;13.336;2022-11-06T00:38:57;101429.56;;;10.60;79.93
16595;BME280;8410;52.532;13.336;2022-11-06T00:41:25;101430.16;;;10.13;81.08
16595;BME280;8410;52.532;13.336;2022-11-06T00:43:55;101433.59;;;10.15;82.23
16595;BME280;8410;52.532;13.336;2022-11-06T00:46:23;101430.84;;;10.41;81.10
16595;BME280;8410;52.532;13.336;2022-11-06T00:48:51;101425.53;;;10.70;80.80
16595;BME280;8410;52.532;13.336;2022-11-06T00:51:21;101428.94;;;10.34;80.69
16595;BME280;8410;52.532;13.336;2022-11-06T00:53:53;101429.97;;;10.41;80.96
16595;BME280;8410;52.532;13.336;2022-11-06T00:56:22;101439.19;;;9.66;83.64
16595;BME280;8410;52.532;13.336;2022-11-06T00:58:50;101434.66;;;10.22;82.90
16595;BME280;8410;52.532;13.336;2022-11-06T01:01:21;101433.75;;;10.55;82.25
16595;BME280;8410;52.532;13.336;2022-11-06T01:03:51;101428.72;;;10.61;81.21
16595;BME280;8410;52.532;13.336;2022-11-06T01:06:21;101435.41;;;10.53;80.21
16595;BME280;8410;52.532;13.336;2022-11-06T01:08:49;101427.78;;;10.21;82.65
16595;BME280;8410;52.532;13.336;2022-11-06T01:11:19;101429.50;;;10.57;80.87
16595;BME280;8410;52.532;13.336;2022-11-06T01:13:50;101424.28;;;10.54;81.33
16595;BME280;8410;52.532;13.336;2022-11-06T01:16:18;101419.47;;;10.68;79.83
16595;BME280;8410;52.532;13.336;2022-11-06T01:18:46;101421.72;;;10.54;80.17
16595;BME280;8410;52.532;13.336;2022-11-06T01:21:17;101420.31;;;10.68;80.45
16595;BME280;8410;52.532;13.336;2022-11-06T01:23:45;101414.13;;;10.60;79.73
16595;BME280;8410;52.532;13.336;2022-11-06T01:26:13;101413.28;;;10.61;80.33
16595;BME280;8410;52.532;13.336;2022-11-06T01:29:02;101414.13;;;10.58;80.10
16595;BME280;8410;52.532;13.336;2022-11-06T01:31:32;101409.44;;;9.14;83.82
16595;BME280;8410;52.532;13.336;2022-11-06T01:34:00;101401.03;;;9.81;83.90
16595;BME280;8410;52.532;13.336;2022-11-06T01:36:28;101403.13;;;10.29;81.03
16595;BME280;8410;52.532;13.336;2022-11-06T01:38:58;101403.94;;;10.28;81.61
16595;BME280;8410;52.532;13.336;2022-11-06T01:41:28;101405.56;;;10.26;81.78
16595;BME280;8410;52.532;13.336;2022-11-06T01:43:58;101396.53;;;9.42;82.31
16595;BME280;8410;52.532;13.336;2022-11-06T01:46:28;101396.03;;;8.94;85.71
16595;BME280;8410;52.532;13.336;2022-11-06T01:48:59;101395.69;;;9.74;82.22
16595;BME280;8410;52.532;13.336;2022-11-06T01:51:28;101388.00;;;10.08;82.13
16595;BME280;8410;52.532;13.336;2022-11-06T01:53:57;101387.03;;;10.40;80.76
16595;BME280;8410;52.532;13.336;2022-11-06T01:56:25;101379.97;;;10.29;80.61
16595;BME280;8410;52.532;13.336;2022-11-06T01:58:53;101386.22;;;9.72;81.84
16595;BME280;8410;52.532;13.336;2022-11-06T02:01:21;101382.50;;;9.94;81.82
16595;BME280;8410;52.532;13.336;2022-11-06T02:03:57;101372.25;;;10.31;80.52
16595;BME280;8410;52.532;13.336;2022-11-06T02:06:26;101369.25;;;10.14;81.45
16595;BME280;8410;52.532;13.336;2022-11-06T02:08:53;101366.06;;;10.59;79.88
16595;BME280;8410;52.532;13.336;2022-11-06T02:11:21;101368.81;;;9.96;81.60
16595;BME280;8410;52.532;13.336;2022-11-06T02:13:57;101359.56;;;10.38;81.10
16595;BME280;8410;52.532;13.336;2022-11-06T02:16:33;101367.75;;;10.22;81.39
16595;BME280;8410;52.532;13.336;2022-11-06T02:19:18;101371.84;;;9.81;82.77
16595;BME280;8410;52.532;13.336;2022-11-06T02:22:09;101363.19;;;9.44;82.63
16595;BME280;8410;52.532;13.336;2022-11-06T02:25:01;101364.50;;;9.94;82.27
16595;BME280;8410;52.532;13.336;2022-11-06T02:27:34;101349.22;;;10.37;80.42
16595;BME280;8410;52.532;13.336;2022-11-06T02:30:05;101360.66;;;10.48;80.36
16595;BME280;8410;52.532;13.336;2022-11-06T02:32:37;101347.91;;;10.18;81.30
16595;BME280;8410;52.532;13.336;2022-11-06T02:35:15;101351.31;;;10.52;80.20
16595;BME280;8410;52.532;13.336;2022-11-06T02:37:46;101351.84;;;10.38;79.38
16595;BME280;8410;52.532;13.336;2022-11-06T02:40:14;101359.56;;;9.69;81.74
16595;BME280;8410;52.532;13.336;2022-11-06T02:42:47;101358.44;;;9.92;81.54
16595;BME280;8410;52.532;13.336;2022-11-06T02:45:18;101364.13;;;9.81;81.76
16595;BME280;8410;52.532;13.336;2022-11-06T02:47:48;101359.47;;;9.02;85.83
16595;BME280;8410;52.532;13.336;2022-11-06T02:50:24;101357.72;;;9.65;87.78
16595;BME280;8410;52.532;13.336;2022-11-06T02:52:54;101358.63;;;9.65;90.79
16595;BME280;8410;52.532;13.336;2022-11-06T02:55:27;101352.00;;;9.43;92.92
16595;BME280;8410;52.532;13.336;2022-11-06T02:57:59;101343.56;;;8.86;91.28
16595;BME280;8410;52.532;13.336;2022-11-06T03:00:30;101341.19;;;9.88;87.74
16595;BME280;8410;52.532;13.336;2022-11-06T03:03:00;101351.13;;;10.08;87.92
16595;BME280;8410;52.532;13.336;2022-11-06T03:05:33;101351.78;;;10.01;90.30
16595;BME280;8410;52.532;13.336;2022-11-06T03:08:08;101342.19;;;10.28;84.33
16595;BME280;8410;52.532;13.336;2022-11-06T03:10:41;101351.72;;;9.98;83.29
16595;BME280;8410;52.532;13.336;2022-11-06T03:13:17;101353.81;;;9.14;85.08
16595;BME280;8410;52.532;13.336;2022-11-06T03:15:52;101346.50;;;9.94;83.43
16595;BME280;8410;52.532;13.336;2022-11-06T03:18:26;101346.22;;;10.19;82.77
16595;BME280;8410;52.532;13.336;2022-11-06T03:21:00;101348.44;;;10.05;82.68
16595;BME280;8410;52.532;13.336;2022-11-06T03:23:33;101352.91;;;10.10;81.88
16595;BME280;8410;52.532;13.336;2022-11-06T03:26:09;101349.22;;;10.35;80.06
16595;BME280;8410;52.532;13.336;2022-11-06T03:28:47;101356.44;;;8.87;84.47
16595;BME280;8410;52.532;13.336;2022-11-06T03:31:22;101348.34;;;9.65;83.68
16595;BME280;8410;52.532;13.336;2022-11-06T03:33:55;101351.19;;;9.78;83.41
16595;BME280;8410;52.532;13.336;2022-11-06T03:36:29;101355.69;;;9.52;82.66
16595;BME280;8410;52.532;13.336;2022-11-06T03:39:00;101348.25;;;9.62;83.17
16595;BME280;8410;52.532;13.336;2022-11-06T03:41:31;101354.94;;;9.56;83.77
16595;BME280;8410;52.532;13.336;2022-11-06T03:44:04;101349.78;;;8.64;85.65
16595;BME280;8410;52.532;13.336;2022-11-06T03:46:36;101342.63;;;8.53;86.62
16595;BME280;8410;52.532;13.336;2022-11-06T03:49:07;101338.50;;;9.50;84.27
16595;BME280;8410;52.532;13.336;2022-11-06T03:51:39;101327.97;;;9.73;82.65
16595;BME280;8410;52.532;13.336;2022-11-06T03:54:12;101335.63;;;9.38;82.76
16595;BME280;8410;52.532;13.336;2022-11-06T03:56:43;101332.88;;;9.32;81.89
16595;BME280;8410;52.532;13.336;2022-11-06T03:59:13;101332.44;;;9.48;83.04
16595;BME280;8410;52.532;13.336;2022-11-06T04:01:45;101327.19;;;9.77;82.25
16595;BME280;8410;52.532;13.336;2022-11-06T04:04:18;101331.06;;;9.94;81.16
16595;BME280;8410;52.532;13.336;2022-11-06T04:06:50;101328.25;;;9.85;81.95
16595;BME280;8410;52.532;13.336;2022-11-06T04:09:21;101342.94;;;8.64;86.86
16595;BME280;8410;52.532;13.336;2022-11-06T04:12:10;101329.19;;;8.91;85.29
16595;BME280;8410;52.532;13.336;2022-11-06T04:14:58;101332.94;;;8.73;87.96
16595;BME280;8410;52.532;13.336;2022-11-06T04:17:27;101336.59;;;7.47;90.37
16595;BME280;8410;52.532;13.336;2022-11-06T04:19:59;101324.94;;;8.35;89.90
16595;BME280;8410;52.532;13.336;2022-11-06T04:22:42;101322.34;;;8.91;86.72
16595;BME280;8410;52.532;13.336;2022-11-06T04:25:20;101327.31;;;8.85;85.92
16595;BME280;8410;52.532;13.336;2022-11-06T04:28:20;101315.75;;;8.71;87.37
16595;BME280;8410;52.532;13.336;2022-11-06T04:31:01;101321.69;;;8.39;86.83
16595;BME280;8410;52.532;13.336;2022-11-06T04:33:36;101320.72;;;8.37;88.79
16595;BME280;8410;52.532;13.336;2022-11-06T04:36:16;101318.44;;;9.05;84.77
16595;BME280;8410;52.532;13.336;2022-11-06T04:38:52;101330.09;;;8.64;86.74
16595;BME280;8410;52.532;13.336;2022-11-06T04:41:26;101321.56;;;8.95;85.59
16595;BME280;8410;52.532;13.336;2022-11-06T04:44:03;101324.34;;;9.33;83.61
16595;BME280;8410;52.532;13.336;2022-11-06T04:46:38;101330.13;;;9.58;83.45
16595;BME280;8410;52.532;13.336;2022-11-06T04:49:08;101324.50;;;8.49;88.19
16595;BME280;8410;52.532;13.336;2022-11-06T04:51:38;101319.81;;;9.24;85.34
16595;BME280;8410;52.532;13.336;2022-11-06T04:54:08;101315.09;;;8.49;85.48
16595;BME280;8410;52.532;13.336;2022-11-06T04:56:36;101318.22;;;8.39;88.06
16595;BME280;8410;52.532;13.336;2022-11-06T04:59:13;101305.53;;;8.72;87.76
16595;BME280;8410;52.532;13.336;2022-11-06T05:01:42;101309.75;;;8.70;86.42
16595;BME280;8410;52.532;13.336;2022-11-06T05:04:10;101294.09;;;9.23;85.13
16595;BME280;8410;52.532;13.336;2022-11-06T05:06:38;101300.94;;;8.62;85.58
16595;BME280;8410;52.532;13.336;2022-11-06T05:09:05;101310.75;;;8.20;88.29
16595;BME280;8410;52.532;13.336;2022-11-06T05:11:33;101301.44;;;8.79;85.04
16595;BME280;8410;52.532;13.336;2022-11-06T05:14:00;101309.16;;;7.96;85.04
16595;BME280;8410;52.532;13.336;2022-11-06T05:16:28;101307.69;;;8.04;87.54
16595;BME280;8410;52.532;13.336;2022-11-06T05:18:56;101304.72;;;8.45;88.21
16595;BME280;8410;52.532;13.336;2022-11-06T05:21:24;101310.59;;;8.99;85.16
16595;BME280;8410;52.532;13.336;2022-11-06T05:24:09;101300.81;;;8.57;86.92
16595;BME280;8410;52.532;13.336;2022-11-06T05:26:36;101307.69;;;8.04;87.21
16595;BME280;8410;52.532;13.336;2022-11-06T05:29:04;101303.97;;;8.22;88.85
16595;BME280;8410;52.532;13.336;2022-11-06T05:31:31;101301.22;;;8.71;85.98
16595;BME280;8410;52.532;13.336;2022-11-06T05:34:00;101297.81;;;9.02;85.35
16595;BME280;8410;52.532;13.336;2022-11-06T05:36:27;101305.97;;;8.03;87.45
16595;BME280;8410;52.532;13.336;2022-11-06T05:38:55;101298.25;;;8.30;88.88
16595;BME280;8410;52.532;13.336;2022-11-06T05:41:22;101299.69;;;8.21;89.85
16595;BME280;8410;52.532;13.336;2022-11-06T05:43:50;101301.50;;;8.82;86.50
16595;BME280;8410;52.532;13.336;2022-11-06T05:46:17;101299.53;;;9.02;84.83
16595;BME280;8410;52.532;13.336;2022-11-06T05:49:07;101306.94;;;9.23;83.66
16595;BME280;8410;52.532;13.336;2022-11-06T05:51:34;101304.09;;;9.12;83.07
16595;BME280;8410;52.532;13.336;2022-11-06T05:54:02;101308.44;;;9.15;83.13
16595;BME280;8410;52.532;13.336;2022-11-06T05:56:29;101309.97;;;8.78;85.28
16595;BME280;8410;52.532;13.336;2022-11-06T05:58:57;101309.03;;;8.18;88.02
16595;BME280;8410;52.532;13.336;2022-11-06T06:01:24;101311.91;;;8.29;88.07
16595;BME280;8410;52.532;13.336;2022-11-06T06:03:52;101307.09;;;8.97;85.99
16595;BME280;8410;52.532;13.336;2022-11-06T06:06:21;101305.38;;;9.28;82.91
16595;BME280;8410;52.532;13.336;2022-11-06T06:08:48;101301.75;;;8.90;84.10
16595;BME280;8410;52.532;13.336;2022-11-06T06:11:15;101305.56;;;8.74;83.87
16595;BME280;8410;52.532;13.336;2022-11-06T06:13:43;101307.38;;;8.48;85.12
16595;BME280;8410;52.532;13.336;2022-11-06T06:16:10;101312.00;;;8.59;86.64
16595;BME280;8410;52.532;13.336;2022-11-06T06:18:38;101301.81;;;9.23;83.71
16595;BME280;8410;52.532;13.336;2022-11-06T06:21:05;101307.56;;;8.84;84.34
16595;BME280;8410;52.532;13.336;2022-11-06T06:23:34;101304.16;;;8.55;86.44
16595;BME280;8410;52.532;13.336;2022-11-06T06:26:01;101313.63;;;8.57;85.96
16595;BME280;8410;52.532;13.336;2022-11-06T06:28:30;101307.66;;;9.17;84.34
16595;BME280;8410;52.532;13.336;2022-11-06T06:30:58;101313.91;;;9.27;82.69
16595;BME280;8410;52.532;13.336;2022-11-06T06:33:27;101320.63;;;8.61;86.46
16595;BME280;8410;52.532;13.336;2022-11-06T06:35:54;101326.47;;;8.86;85.38
16595;BME280;8410;52.532;13.336;2022-11-06T06:38:22;101323.31;;;9.26;83.31
16595;BME280;8410;52.532;13.336;2022-11-06T06:40:52;101321.09;;;9.09;82.79
16595;BME280;8410;52.532;13.336;2022-11-06T06:43:20;101326.81;;;8.98;82.30
16595;BME280;8410;52.532;13.336;2022-11-06T06:45:47;101334.00;;;8.26;84.49
16595;BME280;8410;52.532;13.336;2022-11-06T06:48:14;101328.91;;;9.12;84.04
16595;BME280;8410;52.532;13.336;2022-11-06T06:50:42;101326.22;;;9.09;82.55
16595;BME280;8410;52.532;13.336;2022-11-06T06:53:09;101329.69;;;9.09;84.05
16595;BME280;8410;52.532;13.336;2022-11-06T06:55:38;101324.97;;;9.24;82.78
16595;BME280;8410;52.532;13.336;2022-11-06T06:58:08;101322.47;;;8.96;82.45
16595;BME280;8410;52.532;13.336;2022-11-06T07:00:43;101333.31;;;8.57;85.78
16595;BME280;8410;52.532;13.336;2022-11-06T07:03:10;101333.38;;;9.50;83.00
16595;BME280;8410;52.532;13.336;2022-11-06T07:05:38;101328.91;;;9.12;82.90
16595;BME280;8410;52.532;13.336;2022-11-06T07:08:06;101326.16;;;9.05;84.81
16595;BME280;8410;52.532;13.336;2022-11-06T07:10:34;101329.66;;;9.39;82.82
16595;BME280;8410;52.532;13.336;2022-11-06T07:13:02;101339.00;;;9.69;81.53
16595;BME280;8410;52.532;13.336;2022-11-06T07:15:31;101327.19;;;9.77;80.26
16595;BME280;8410;52.532;13.336;2022-11-06T07:18:02;101326.78;;;9.28;84.37
16595;BME280;8410;52.532;13.336;2022-11-06T07:20:30;101328.56;;;9.98;81.12
16595;BME280;8410;52.532;13.336;2022-11-06T07:22:58;101327.56;;;8.66;85.33
16595;BME280;8410;52.532;13.336;2022-11-06T07:25:26;101322.13;;;9.80;82.51
16595;BME280;8410;52.532;13.336;2022-11-06T07:27:53;101328.22;;;9.17;84.09
16595;BME280;8410;52.532;13.336;2022-11-06T07:30:26;101329.69;;;9.74;80.35
16595;BME280;8410;52.532;13.336;2022-11-06T07:32:55;101320.63;;;9.88;82.25
16595;BME280;8410;52.532;13.336;2022-11-06T07:35:25;101327.66;;;9.96;80.67
16595;BME280;8410;52.532;13.336;2022-11-06T07:37:53;101321.97;;;10.09;80.75
16595;BME280;8410;52.532;13.336;2022-11-06T07:40:20;101323.69;;;10.08;79.86
16595;BME280;8410;52.532;13.336;2022-11-06T07:42:48;101320.50;;;10.20;79.39
16595;BME280;8410;52.532;13.336;2022-11-06T07:45:15;101317.19;;;9.88;80.76
16595;BME280;8410;52.532;13.336;2022-11-06T07:47:43;101320.53;;;9.85;81.07
16595;BME280;8410;52.532;13.336;2022-11-06T07:50:11;101320.53;;;9.85;81.00
16595;BME280;8410;52.532;13.336;2022-11-06T07:52:39;101313.38;;;10.08;79.66
16595;BME280;8410;52.532;13.336;2022-11-06T07:55:07;101320.06;;;10.00;79.94
16595;BME280;8410;52.532;13.336;2022-11-06T07:57:35;101308.78;;;10.30;79.79
16595;BME280;8410;52.532;13.336;2022-11-06T08:00:04;101315.22;;;10.14;79.43
16595;BME280;8410;52.532;13.336;2022-11-06T08:02:32;101324.03;;;9.89;80.79
16595;BME280;8410;52.532;13.336;2022-11-06T08:05:00;101319.44;;;9.42;82.49
16595;BME280;8410;52.532;13.336;2022-11-06T08:07:28;101317.31;;;10.29;80.00
16595;BME280;8410;52.532;13.336;2022-11-06T08:09:56;101315.50;;;10.26;81.01
16595;BME280;8410;52.532;13.336;2022-11-06T08:12:24;101317.56;;;10.03;81.28
16595;BME280;8410;52.532;13.336;2022-11-06T08:17:19;101296.47;;;10.56;79.25
16595;BME280;8410;52.532;13.336;2022-11-06T08:19:47;101292.16;;;10.55;78.75
16595;BME280;8410;52.532;13.336;2022-11-06T08:22:14;101295.75;;;10.62;78.90
16595;BME280;8410;52.532;13.336;2022-11-06T08:24:43;101289.13;;;10.74;78.50
16595;BME280;8410;52.532;13.336;2022-11-06T08:27:11;101295.22;;;10.79;78.16
16595;BME280;8410;52.532;13.336;2022-11-06T08:29:38;101296.72;;;10.68;78.04
16595;BME280;8410;52.532;13.336;2022-11-06T08:32:07;101296.84;;;9.99;80.36
16595;BME280;8410;52.532;13.336;2022-11-06T08:34:35;101302.81;;;10.32;79.40
16595;BME280;8410;52.532;13.336;2022-11-06T08:37:02;101295.34;;;10.07;79.82
16595;BME280;8410;52.532;13.336;2022-11-06T08:39:29;101292.59;;;10.35;80.07
16595;BME280;8410;52.532;13.336;2022-11-06T08:41:58;101287.22;;;10.64;79.76
16595;BME280;8410;52.532;13.336;2022-11-06T08:44:27;101281.09;;;10.59;79.62
16595;BME280;8410;52.532;13.336;2022-11-06T08:46:54;101279.34;;;10.58;79.03
16595;BME280;8410;52.532;13.336;2022-11-06T08:49:21;101270.59;;;10.91;78.06
16595;BME280;8410;52.532;13.336;2022-11-06T08:51:49;101277.63;;;10.57;78.78
16595;BME280;8410;52.532;13.336;2022-11-06T08:54:16;101270.78;;;11.01;78.42
16595;BME280;8410;52.532;13.336;2022-11-06T08:56:44;101274.72;;;10.82;79.63
16595;BME280;8410;52.532;13.336;2022-11-06T08:59:13;101270.13;;;10.68;77.46
16595;BME280;8410;52.532;13.336;2022-11-06T09:01:40;101286.91;;;9.76;83.65
16595;BME280;8410;52.532;13.336;2022-11-06T09:04:08;101282.91;;;10.25;80.49
16595;BME280;8410;52.532;13.336;2022-11-06T09:06:35;101281.25;;;11.11;78.80
16595;BME280;8410;52.532;13.336;2022-11-06T09:09:03;101270.09;;;11.10;78.70
16595;BME280;8410;52.532;13.336;2022-11-06T09:11:31;101260.41;;;12.60;96.30
16595;BME280;8410;52.532;13.336;2022-11-06T09:13:58;101250.13;;;14.89;90.82
16595;BME280;8410;52.532;13.336;2022-11-06T09:16:27;101238.13;;;15.68;82.40
16595;BME280;8410;52.532;13.336;2022-11-06T09:18:55;101241.59;;;15.48;76.67
16595;BME280;8410;52.532;13.336;2022-11-06T09:21:23;101246.75;;;15.14;70.03
16595;BME280;8410;52.532;13.336;2022-11-06T09:23:50;101245.03;;;15.10;77.53
16595;BME280;8410;52.532;13.336;2022-11-06T09:26:18;101240.56;;;16.46;75.43
16595;BME280;8410;52.532;13.336;2022-11-06T09:28:45;101244.91;;;16.45;71.15
16595;BME280;8410;52.532;13.336;2022-11-06T09:31:13;101245.03;;;15.62;66.89
16595;BME280;8410;52.532;13.336;2022-11-06T09:33:41;101246.81;;;15.71;75.42
16595;BME280;8410;52.532;13.336;2022-11-06T09:36:09;101248.47;;;16.10;74.06
16595;BME280;8410;52.532;13.336;2022-11-06T09:38:37;101254.56;;;15.82;71.43
16595;BME280;8410;52.532;13.336;2022-11-06T09:41:05;101262.09;;;14.53;66.18
16595;BME280;8410;52.532;13.336;2022-11-06T09:43:45;101264.00;;;13.50;69.69
16595;BME280;8410;52.532;13.336;2022-11-06T09:46:32;101268.94;;;13.27;69.48
16595;BME280;8410;52.532;13.336;2022-11-06T09:49:06;101265.00;;;12.85;71.39
16595;BME280;8410;52.532;13.336;2022-11-06T09:51:38;101268.41;;;12.16;72.32
16595;BME280;8410;52.532;13.336;2022-11-06T09:54:13;101267.19;;;11.90;76.59
16595;BME280;8410;52.532;13.336;2022-11-06T09:56:42;101269.34;;;11.67;76.09
16595;BME280;8410;52.532;13.336;2022-11-06T09:59:14;101272.06;;;12.30;74.09
16595;BME280;8410;52.532;13.336;2022-11-06T10:01:46;101275.22;;;12.10;73.36
16595;BME280;8410;52.532;13.336;2022-11-06T10:04:26;101263.31;;;12.20;75.22
16595;BME280;8410;52.532;13.336;2022-11-06T10:06:56;101257.53;;;12.35;74.02
16595;BME280;8410;52.532;13.336;2022-11-06T10:09:24;101255.44;;;12.09;74.16
16595;BME280;8410;52.532;13.336;2022-11-06T10:11:58;101248.88;;;11.77;73.59
16595;BME280;8410;52.532;13.336;2022-11-06T10:14:39;101245.38;;;12.28;74.78
16595;BME280;8410;52.532;13.336;2022-11-06T10:17:20;101245.81;;;12.62;74.45
16595;BME280;8410;52.532;13.336;2022-11-06T10:19:55;101246.78;;;12.07;76.51
16595;BME280;8410;52.532;13.336;2022-11-06T10:22:31;101243.16;;;12.58;77.92
16595;BME280;8410;52.532;13.336;2022-11-06T10:25:08;101231.16;;;12.64;76.48
16595;BME280;8410;52.532;13.336;2022-11-06T10:27:55;101229.34;;;11.91;76.41
16595;BME280;8410;52.532;13.336;2022-11-06T10:30:34;101224.91;;;11.84;75.91
16595;BME280;8410;52.532;13.336;2022-11-06T10:33:14;101226.22;;;12.12;77.47
16595;BME280;8410;52.532;13.336;2022-11-06T10:35:49;101225.69;;;12.36;75.07
16595;BME280;8410;52.532;13.336;2022-11-06T10:38:23;101222.50;;;12.58;74.81
16595;BME280;8410;52.532;13.336;2022-11-06T10:40:52;101214.16;;;12.81;73.96
16595;BME280;8410;52.532;13.336;2022-11-06T10:43:26;101213.97;;;12.66;74.20
16595;BME280;8410;52.532;13.336;2022-11-06T10:46:02;101208.91;;;12.75;74.09
16595;BME280;8410;52.532;13.336;2022-11-06T10:48:36;101205.78;;;12.27;75.02
16595;BME280;8410;52.532;13.336;2022-11-06T10:51:20;101203.00;;;12.88;73.86
16595;BME280;8410;52.532;13.336;2022-11-06T10:54:01;101196.75;;;12.65;74.80
16595;BME280;8410;52.532;13.336;2022-11-06T10:56:46;101189.41;;;13.03;72.45
16595;BME280;8410;52.532;13.336;2022-11-06T10:59:17;101184.19;;;13.00;73.10
16595;BME280;8410;52.532;13.336;2022-11-06T11:01:45;101181.47;;;12.11;76.64
16595;BME280;8410;52.532;13.336;2022-11-06T11:04:13;101172.09;;;12.94;75.95
16595;BME280;8410;52.532;13.336;2022-11-06T11:06:42;101157.91;;;13.49;76.51
16595;BME280;8410;52.532;13.336;2022-11-06T11:09:25;101159.66;;;13.48;74.85
16595;BME280;8410;52.532;13.336;2022-11-06T11:11:53;101155.22;;;13.32;74.75
16595;BME280;8410;52.532;13.336;2022-11-06T11:14:22;101162.31;;;13.60;73.63
16595;BME280;8410;52.532;13.336;2022-11-06T11:16:50;101166.47;;;13.38;73.10
16595;BME280;8410;52.532;13.336;2022-11-06T11:19:24;101157.88;;;13.42;73.49
16595;BME280;8410;52.532;13.336;2022-11-06T11:21:55;101162.25;;;12.56;74.73
16595;BME280;8410;52.532;13.336;2022-11-06T11:24:24;101171.78;;;12.67;75.06
16595;BME280;8410;52.532;13.336;2022-11-06T11:26:53;101159.34;;;13.13;73.49
16595;BME280;8410;52.532;13.336;2022-11-06T11:29:24;101163.38;;;12.83;75.17
16595;BME280;8410;52.532;13.336;2022-11-06T11:31:55;101157.53;;;13.02;73.98
16595;BME280;8410;52.532;13.336;2022-11-06T11:34:25;101160.59;;;12.65;75.14
16595;BME280;8410;52.532;13.336;2022-11-06T11:36:57;101163.69;;;12.33;74.40
16595;BME280;8410;52.532;13.336;2022-11-06T11:39:30;101154.72;;;12.83;74.24
16595;BME280;8410;52.532;13.336;2022-11-06T11:42:23;101149.19;;;13.34;73.18
16595;BME280;8410;52.532;13.336;2022-11-06T11:45:18;101148.50;;;12.61;74.58
16595;BME280;8410;52.532;13.336;2022-11-06T11:48:18;101142.88;;;12.21;77.17
16595;BME280;8410;52.532;13.336;2022-11-06T11:50:45;101137.63;;;12.94;75.53
16595;BME280;8410;52.532;13.336;2022-11-06T11:53:18;101134.81;;;12.71;74.46
16595;BME280;8410;52.532;13.336;2022-11-06T11:55:48;101129.47;;;13.52;72.63
16595;BME280;8410;52.532;13.336;2022-11-06T11:58:20;101122.22;;;13.05;72.99
16595;BME280;8410;52.532;13.336;2022-11-06T12:00:52;101129.81;;;12.86;73.34
16595;BME280;8410;52.532;13.336;2022-11-06T12:03:21;101125.88;;;13.30;72.57
16595;BME280;8410;52.532;13.336;2022-11-06T12:05:52;101119.47;;;12.86;74.45
16595;BME280;8410;52.532;13.336;2022-11-06T12:08:24;101124.44;;;12.66;74.31
16595;BME280;8410;52.532;13.336;2022-11-06T12:10:59;101117.75;;;12.88;72.76
16595;BME280;8410;52.532;13.336;2022-11-06T12:13:28;101104.06;;;13.01;72.99
16595;BME280;8410;52.532;13.336;2022-11-06T12:15:58;101101.50;;;13.00;74.22
16595;BME280;8410;52.532;13.336;2022-11-06T12:18:29;101093.66;;;12.89;73.28
16595;BME280;8410;52.532;13.336;2022-11-06T12:21:01;101103.34;;;12.25;75.16
16595;BME280;8410;52.532;13.336;2022-11-06T12:23:35;101106.13;;;12.43;74.63
16595;BME280;8410;52.532;13.336;2022-11-06T12:26:11;101095.75;;;13.33;73.24
16595;BME280;8410;52.532;13.336;2022-11-06T12:28:46;101097.38;;;13.25;72.77
16595;BME280;8410;52.532;13.336;2022-11-06T12:31:19;101089.78;;;13.42;71.38
16595;BME280;8410;52.532;13.336;2022-11-06T12:33:51;101080.34;;;13.52;71.10
16595;BME280;8410;52.532;13.336;2022-11-06T12:36:42;101073.50;;;13.63;71.71
16595;BME280;8410;52.532;13.336;2022-11-06T12:39:19;101075.72;;;13.12;71.47
16595;BME280;8410;52.532;13.336;2022-11-06T12:41:51;101074.97;;;13.24;72.01
16595;BME280;8410;52.532;13.336;2022-11-06T12:44:21;101074.34;;;13.57;72.10
16595;BME280;8410;52.532;13.336;2022-11-06T12:46:55;101081.69;;;13.00;72.86
16595;BME280;8410;52.532;13.336;2022-11-06T12:49:34;101078.03;;;12.77;74.51
16595;BME280;8410;52.532;13.336;2022-11-06T12:52:19;101069.66;;;13.02;73.06
16595;BME280;8410;52.532;13.336;2022-11-06T12:55:06;101070.63;;;13.15;71.89
16595;BME280;8410;52.532;13.336;2022-11-06T12:57:44;101062.28;;;13.56;72.27
16595;BME280;8410;52.532;13.336;2022-11-06T13:00:18;101069.69;;;13.12;71.73
16595;BME280;8410;52.532;13.336;2022-11-06T13:03:15;101056.25;;;13.59;71.76
16595;BME280;8410;52.532;13.336;2022-11-06T13:05:51;101055.13;;;13.18;72.73
16595;BME280;8410;52.532;13.336;2022-11-06T13:08:30;101050.91;;;13.30;71.90
16595;BME280;8410;52.532;13.336;2022-11-06T13:11:09;101047.63;;;13.63;70.79
16595;BME280;8410;52.532;13.336;2022-11-06T13:13:47;101049.47;;;13.79;69.55
16595;BME280;8410;52.532;13.336;2022-11-06T13:16:26;101049.41;;;13.76;70.05
16595;BME280;8410;52.532;13.336;2022-11-06T13:19:02;101046.03;;;13.89;69.37
16595;BME280;8410;52.532;13.336;2022-11-06T13:21:49;101044.22;;;13.67;70.84